createdAt,value
2023-03-21T00:00:36.629Z,30.40
2023-03-21T00:01:36.568Z,26.50
2023-03-21T00:02:36.579Z,28.00
2023-03-21T00:03:36.745Z,28.30
2023-03-21T00:34:15.384Z,26.40
2023-03-21T00:34:27.080Z,28.60
2023-03-21T00:35:53.510Z,29.00
2023-03-21T00:36:20.336Z,26.50
2023-03-21T00:37:20.361Z,28.20
2023-03-21T00:38:20.294Z,27.60
2023-03-21T00:39:20.429Z,27.60
2023-03-21T00:40:27.900Z,24.70
2023-03-21T00:41:35.181Z,29.60
2023-03-21T00:42:20.271Z,28.30
2023-03-21T00:43:20.213Z,24.60
2023-03-21T00:44:20.253Z,27.70
2023-03-21T00:45:20.215Z,29.80
2023-03-21T00:46:21.736Z,28.10
2023-03-21T00:47:20.207Z,25.60
2023-03-21T00:48:20.194Z,30.90
2023-03-21T00:49:20.201Z,31.20
2023-03-21T00:50:20.183Z,29.10
2023-03-21T00:51:20.161Z,27.60
2023-03-21T00:52:30.617Z,30.70
2023-03-21T00:53:20.156Z,26.80
2023-03-21T00:54:20.172Z,27.80
2023-03-21T00:55:20.130Z,31.10
2023-03-21T00:56:20.091Z,27.70
2023-03-21T00:57:21.998Z,30.20
2023-03-21T00:58:20.175Z,29.20
2023-03-21T00:59:20.056Z,28.80
2023-03-21T01:00:20.024Z,28.60
2023-03-21T01:01:20.009Z,29.50
2023-03-21T01:02:20.076Z,29.50
2023-03-21T01:03:25.049Z,35.20
2023-03-21T01:04:20.025Z,29.70
2023-03-21T01:05:20.023Z,31.30
2023-03-21T01:06:19.995Z,31.60
2023-03-21T01:07:20.045Z,29.60
2023-03-21T01:08:28.011Z,32.00
2023-03-21T01:09:20.042Z,32.90
2023-03-21T01:10:19.928Z,31.20
2023-03-21T01:11:19.894Z,33.30
2023-03-21T01:12:19.922Z,29.20
2023-03-21T01:13:19.901Z,30.10
2023-03-21T01:14:23.080Z,28.20
2023-03-21T01:15:19.866Z,29.50
2023-03-21T01:16:19.886Z,29.60
2023-03-21T01:17:19.850Z,27.40
2023-03-21T01:18:19.837Z,30.70
2023-03-21T01:19:50.731Z,29.40
2023-03-21T01:20:19.829Z,28.80
2023-03-21T01:21:19.889Z,30.10
2023-03-21T01:22:19.795Z,31.20
2023-03-21T01:23:19.823Z,31.20
2023-03-21T01:24:19.793Z,28.80
2023-03-21T01:25:22.704Z,31.10
2023-03-21T01:26:19.773Z,32.00
2023-03-21T01:27:19.806Z,31.60
2023-03-21T01:28:19.747Z,32.60
2023-03-21T01:29:19.775Z,27.30
2023-03-21T01:30:23.903Z,32.40
2023-03-21T01:31:19.724Z,29.60
2023-03-21T01:32:19.718Z,29.10
2023-03-21T01:33:19.644Z,29.50
2023-03-21T01:34:19.690Z,32.40
2023-03-21T01:35:19.628Z,28.00
2023-03-21T01:36:22.656Z,30.10
2023-03-21T01:37:19.614Z,30.50
2023-03-21T01:38:19.587Z,28.80
2023-03-21T01:39:19.602Z,32.50
2023-03-21T01:40:19.569Z,29.10
2023-03-21T01:41:20.358Z,32.90
2023-03-21T01:42:19.550Z,32.40
2023-03-21T01:43:19.554Z,28.40
2023-03-21T01:44:19.540Z,32.00
2023-03-21T01:45:19.512Z,34.60
2023-03-21T01:46:19.563Z,28.40
2023-03-21T01:47:19.490Z,30.20
2023-03-21T01:48:19.484Z,30.80
2023-03-21T01:49:19.497Z,28.20
2023-03-21T01:50:19.451Z,29.10
2023-03-21T01:51:19.459Z,31.50
2023-03-21T01:52:33.408Z,30.60
2023-03-21T01:53:19.433Z,32.70
2023-03-21T01:54:19.435Z,31.10
2023-03-21T01:55:19.426Z,31.10
2023-03-21T01:56:19.388Z,36.10
2023-03-21T01:57:19.878Z,29.20
2023-03-21T01:58:19.380Z,30.40
2023-03-21T01:59:19.380Z,30.70
2023-03-21T02:00:19.346Z,32.70
2023-03-21T02:01:19.361Z,30.20
2023-03-21T02:02:19.337Z,31.80
2023-03-21T02:03:33.191Z,32.40
2023-03-21T02:04:19.409Z,30.70
2023-03-21T02:05:19.292Z,29.70
2023-03-21T02:06:19.275Z,34.60
2023-03-21T02:07:19.272Z,32.60
2023-03-21T02:08:20.871Z,30.30
2023-03-21T02:09:19.266Z,31.20
2023-03-21T02:10:19.232Z,34.30
2023-03-21T02:11:19.233Z,29.70
2023-03-21T02:12:19.203Z,34.00
2023-03-21T02:13:19.201Z,34.00
2023-03-21T02:14:28.305Z,31.60
2023-03-21T02:15:19.195Z,31.80
2023-03-21T02:16:19.183Z,31.60
2023-03-21T02:17:19.150Z,29.70
2023-03-21T02:18:19.144Z,31.30
2023-03-21T02:19:23.023Z,30.20
2023-03-21T02:20:19.121Z,30.20
2023-03-21T02:21:19.119Z,33.00
2023-03-21T02:22:19.105Z,34.90
2023-03-21T02:23:19.089Z,28.90
2023-03-21T02:24:19.097Z,33.30
2023-03-21T02:25:22.116Z,34.50
2023-03-21T02:26:19.058Z,30.30
2023-03-21T02:27:19.045Z,35.00
2023-03-21T02:28:19.031Z,34.10
2023-03-21T02:29:19.043Z,29.30
2023-03-21T02:30:28.266Z,32.60
2023-03-21T02:31:19.049Z,31.40
2023-03-21T02:32:31.417Z,30.40
2023-03-21T02:33:18.985Z,31.60
2023-03-21T02:34:18.979Z,31.80
2023-03-21T02:35:18.960Z,33.00
2023-03-21T02:36:18.975Z,32.20
2023-03-21T02:37:18.949Z,29.30
2023-03-21T02:38:18.919Z,30.40
2023-03-21T02:39:18.941Z,31.50
2023-03-21T02:40:18.907Z,30.40
2023-03-21T02:41:20.019Z,32.50
2023-03-21T02:42:18.874Z,29.40
2023-03-21T02:43:23.332Z,32.80
2023-03-21T02:44:18.879Z,30.20
2023-03-21T02:45:18.840Z,32.00
2023-03-21T02:46:18.916Z,36.00
2023-03-21T02:47:18.846Z,32.60
2023-03-21T02:48:26.863Z,30.80
2023-03-21T02:49:18.835Z,31.70
2023-03-21T02:50:18.783Z,31.90
2023-03-21T02:51:18.798Z,31.60
2023-03-21T02:52:31.802Z,30.50
2023-03-21T02:53:18.759Z,31.80
2023-03-21T02:54:35.384Z,31.90
2023-03-21T02:55:18.744Z,30.50
2023-03-21T02:56:18.723Z,32.30
2023-03-21T02:57:18.724Z,35.40
2023-03-21T02:58:18.724Z,34.90
2023-03-21T02:59:18.718Z,32.40
2023-03-21T03:00:18.677Z,34.10
2023-03-21T03:01:18.693Z,40.30
2023-03-21T03:02:18.660Z,34.80
2023-03-21T03:03:33.064Z,33.20
2023-03-21T03:04:18.693Z,39.20
2023-03-21T03:05:22.136Z,39.70
2023-03-21T03:06:18.604Z,38.40
2023-03-21T03:07:18.602Z,35.00
2023-03-21T03:08:18.608Z,34.80
2023-03-21T03:09:18.606Z,39.10
2023-03-21T03:10:18.566Z,38.90
2023-03-21T03:11:18.567Z,41.10
2023-03-21T03:12:18.540Z,36.80
2023-03-21T03:13:18.562Z,40.60
2023-03-21T03:14:40.159Z,38.30
2023-03-21T03:15:18.520Z,42.00
2023-03-21T03:16:18.610Z,37.00
2023-03-21T03:17:18.504Z,36.40
2023-03-21T03:18:18.487Z,35.50
2023-03-21T03:19:18.482Z,37.80
2023-03-21T03:20:18.466Z,41.70
2023-03-21T03:21:18.456Z,42.80
2023-03-21T03:22:18.451Z,39.30
2023-03-21T03:23:18.423Z,38.00
2023-03-21T03:24:18.453Z,41.80
2023-03-21T03:25:25.007Z,36.50
2023-03-21T03:26:18.399Z,36.40
2023-03-21T03:27:18.396Z,36.00
2023-03-21T03:28:18.375Z,36.70
2023-03-21T03:29:18.373Z,35.30
2023-03-21T03:30:18.346Z,36.60
2023-03-21T03:31:20.830Z,34.70
2023-03-21T03:32:18.333Z,38.30
2023-03-21T03:33:18.313Z,40.50
2023-03-21T03:34:18.331Z,40.50
2023-03-21T03:35:18.292Z,39.40
2023-03-21T03:36:31.184Z,31.30
2023-03-21T03:37:18.281Z,36.70
2023-03-21T03:38:18.254Z,40.80
2023-03-21T03:39:18.267Z,38.00
2023-03-21T03:40:18.239Z,39.80
2023-03-21T03:41:19.376Z,38.00
2023-03-21T03:42:28.072Z,36.20
2023-03-21T03:43:18.210Z,39.90
2023-03-21T03:44:18.223Z,37.70
2023-03-21T03:45:18.177Z,37.40
2023-03-21T03:46:18.236Z,38.10
2023-03-21T03:47:31.992Z,40.60
2023-03-21T03:48:18.169Z,38.90
2023-03-21T03:49:18.152Z,35.10
2023-03-21T03:50:18.128Z,38.50
2023-03-21T03:51:18.103Z,33.70
2023-03-21T03:52:18.100Z,38.30
2023-03-21T03:53:18.839Z,36.60
2023-03-21T03:54:18.099Z,37.00
2023-03-21T03:55:18.098Z,37.80
2023-03-21T03:56:18.056Z,36.30
2023-03-21T03:57:18.038Z,39.60
2023-03-21T03:58:23.213Z,36.80
2023-03-21T03:59:18.053Z,34.90
2023-03-21T04:00:18.020Z,32.40
2023-03-21T04:01:18.000Z,39.20
2023-03-21T04:02:18.074Z,38.00
2023-03-21T04:03:18.009Z,35.90
2023-03-21T04:04:18.934Z,36.70
2023-03-21T04:05:19.047Z,34.90
2023-03-21T04:06:17.984Z,39.40
2023-03-21T04:07:17.943Z,34.80
2023-03-21T04:08:17.936Z,41.00
2023-03-21T04:09:22.145Z,40.40
2023-03-21T04:10:17.906Z,36.60
2023-03-21T04:11:17.896Z,38.00
2023-03-21T04:12:17.886Z,38.30
2023-03-21T04:13:17.873Z,38.60
2023-03-21T04:14:17.883Z,35.30
2023-03-21T04:15:17.841Z,37.80
2023-03-21T04:16:17.879Z,37.70
2023-03-21T04:17:17.826Z,37.40
2023-03-21T04:18:17.815Z,38.40
2023-03-21T04:19:17.826Z,38.10
2023-03-21T04:20:30.092Z,37.00
2023-03-21T04:21:17.781Z,38.70
2023-03-21T04:22:17.802Z,40.70
2023-03-21T04:23:17.763Z,39.40
2023-03-21T04:24:17.764Z,40.00
2023-03-21T04:25:30.790Z,41.30
2023-03-21T04:26:17.733Z,39.20
2023-03-21T04:27:17.718Z,40.80
2023-03-21T04:28:17.712Z,39.80
2023-03-21T04:29:17.723Z,42.50
2023-03-21T04:30:17.691Z,39.40
2023-03-21T04:31:25.457Z,39.80
2023-03-21T04:32:17.861Z,37.40
2023-03-21T04:33:17.648Z,38.90
2023-03-21T04:34:17.650Z,39.10
2023-03-21T04:35:17.625Z,40.70
2023-03-21T04:36:17.628Z,44.00
2023-03-21T04:37:17.604Z,43.30
2023-03-21T04:38:17.599Z,43.90
2023-03-21T04:39:17.598Z,41.20
2023-03-21T04:40:17.572Z,43.90
2023-03-21T04:41:17.552Z,40.90
2023-03-21T04:42:17.547Z,43.40
2023-03-21T04:43:17.545Z,41.20
2023-03-21T04:44:17.552Z,44.20
2023-03-21T04:45:17.523Z,43.20
2023-03-21T04:46:17.596Z,46.30
2023-03-21T04:47:17.487Z,42.70
2023-03-21T04:48:17.538Z,45.80
2023-03-21T04:49:17.479Z,40.20
2023-03-21T04:50:17.461Z,44.20
2023-03-21T04:51:17.454Z,45.70
2023-03-21T04:52:17.434Z,43.90
2023-03-21T04:53:17.459Z,41.80
2023-03-21T05:03:07.856Z,45.20
2023-03-21T05:04:08.917Z,46.00
2023-03-21T05:05:08.829Z,46.10
2023-03-21T05:06:08.811Z,43.00
2023-03-21T05:07:08.807Z,47.10
2023-03-21T05:08:08.792Z,49.80
2023-03-21T05:09:08.800Z,48.60
2023-03-21T05:10:08.779Z,46.60
2023-03-21T05:11:08.775Z,46.50
2023-03-21T05:12:08.741Z,49.10
2023-03-21T05:13:08.741Z,45.60
2023-03-21T05:14:08.737Z,48.60
2023-03-21T05:15:08.712Z,50.70
2023-03-21T05:16:08.698Z,45.00
2023-03-21T05:17:08.696Z,44.10
2023-03-21T05:18:08.681Z,51.40
2023-03-21T05:19:08.685Z,44.60
2023-03-21T05:20:08.653Z,48.70
2023-03-21T05:21:08.645Z,44.70
2023-03-21T05:22:08.642Z,49.00
2023-03-21T05:23:08.631Z,45.50
2023-03-21T05:24:08.636Z,49.10
2023-03-21T05:25:08.626Z,46.00
2023-03-21T05:26:08.622Z,46.20
2023-03-21T05:27:08.588Z,49.50
2023-03-21T05:28:08.756Z,47.40
2023-03-21T05:29:08.617Z,46.20
2023-03-21T05:30:08.542Z,47.30
2023-03-21T05:31:08.597Z,51.50
2023-03-21T05:32:08.526Z,42.10
2023-03-21T05:33:08.523Z,41.80
2023-03-21T05:34:08.704Z,47.70
2023-03-21T05:35:08.496Z,48.60
2023-03-21T05:36:08.483Z,46.30
2023-03-21T05:37:08.497Z,43.90
2023-03-21T05:38:08.453Z,47.40
2023-03-21T05:39:08.485Z,44.70
2023-03-21T05:40:08.434Z,45.10
2023-03-21T05:41:08.422Z,45.10
2023-03-21T05:42:08.408Z,43.10
2023-03-21T05:43:08.413Z,46.20
2023-03-21T05:44:08.404Z,45.20
2023-03-21T05:45:08.381Z,45.70
2023-03-21T05:46:08.405Z,46.40
2023-03-21T05:47:08.356Z,46.50
2023-03-21T05:48:08.525Z,46.40
2023-03-21T05:49:08.353Z,47.90
2023-03-21T05:50:08.330Z,45.60
2023-03-21T05:51:08.308Z,40.90
2023-03-21T05:52:08.295Z,49.50
2023-03-21T05:53:08.287Z,47.80
2023-03-21T05:54:08.310Z,46.30
2023-03-21T05:55:08.266Z,45.90
2023-03-21T05:56:08.263Z,44.90
2023-03-21T05:57:08.244Z,42.40
2023-03-21T05:58:08.236Z,48.00
2023-03-21T05:59:08.254Z,48.20
2023-03-21T06:00:08.209Z,44.80
2023-03-21T06:01:08.202Z,44.80
2023-03-21T06:02:08.194Z,41.40
2023-03-21T06:03:08.179Z,43.10
2023-03-21T06:04:08.320Z,42.20
2023-03-21T06:05:08.165Z,46.00
2023-03-21T06:06:08.151Z,44.20
2023-03-21T06:07:08.134Z,45.10
2023-03-21T06:08:08.139Z,43.70
2023-03-21T06:09:08.137Z,41.60
2023-03-21T06:10:08.117Z,43.30
2023-03-21T06:11:08.096Z,45.20
2023-03-21T06:12:08.101Z,43.80
2023-03-21T06:13:08.067Z,42.00
2023-03-21T06:14:08.078Z,43.40
2023-03-21T06:15:08.058Z,45.20
2023-03-21T06:16:08.123Z,42.20
2023-03-21T06:17:08.024Z,45.60
2023-03-21T06:18:08.036Z,46.70
2023-03-21T06:19:08.025Z,45.40
2023-03-21T06:20:07.988Z,46.30
2023-03-21T06:21:07.980Z,45.50
2023-03-21T06:22:07.976Z,43.20
2023-03-21T06:23:07.956Z,46.00
2023-03-21T06:24:07.973Z,46.10
2023-03-21T06:25:07.938Z,43.50
2023-03-21T06:26:07.926Z,42.60
2023-03-21T06:27:07.918Z,46.80
2023-03-21T06:28:07.906Z,44.40
2023-03-21T06:29:07.922Z,46.10
2023-03-21T06:30:07.872Z,48.80
2023-03-21T06:31:07.942Z,49.20
2023-03-21T06:32:07.853Z,49.00
2023-03-21T06:33:07.851Z,45.40
2023-03-21T06:34:07.858Z,42.30
2023-03-21T06:35:07.899Z,43.60
2023-03-21T06:36:07.826Z,49.10
2023-03-21T06:37:07.806Z,47.00
2023-03-21T06:38:07.792Z,49.90
2023-03-21T06:39:07.847Z,49.30
2023-03-21T06:40:07.773Z,48.10
2023-03-21T06:41:07.765Z,46.40
2023-03-21T06:42:07.741Z,44.70
2023-03-21T06:43:07.788Z,45.70
2023-03-21T06:44:07.734Z,47.60
2023-03-21T06:45:07.712Z,44.50
2023-03-21T06:46:07.708Z,46.40
2023-03-21T06:47:07.790Z,48.40
2023-03-21T06:48:09.376Z,45.90
2023-03-21T06:49:07.726Z,47.00
2023-03-21T06:50:07.650Z,43.30
2023-03-21T06:51:07.642Z,51.00
2023-03-21T06:52:07.631Z,44.30
2023-03-21T06:53:07.675Z,51.10
2023-03-21T06:54:07.643Z,44.70
2023-03-21T06:55:07.673Z,50.70
2023-03-21T06:56:07.593Z,48.10
2023-03-21T06:57:07.588Z,44.90
2023-03-21T06:58:07.553Z,48.50
2023-03-21T06:59:07.581Z,47.00
2023-03-21T07:00:07.538Z,51.80
2023-03-21T07:01:07.564Z,48.40
2023-03-21T07:02:07.579Z,46.90
2023-03-21T07:03:07.512Z,46.20
2023-03-21T07:04:07.501Z,42.40
2023-03-21T07:05:07.604Z,43.70
2023-03-21T07:06:07.544Z,45.80
2023-03-21T07:07:07.480Z,47.70
2023-03-21T07:08:07.452Z,46.10
2023-03-21T07:09:07.466Z,51.50
2023-03-21T07:10:07.449Z,48.80
2023-03-21T07:11:07.418Z,47.50
2023-03-21T07:12:07.416Z,51.50
2023-03-21T07:13:07.416Z,46.00
2023-03-21T07:14:07.379Z,50.20
2023-03-21T07:15:07.437Z,44.20
2023-03-21T07:16:07.411Z,50.30
2023-03-21T07:17:07.359Z,42.60
2023-03-21T07:18:07.347Z,43.70
2023-03-21T07:19:07.373Z,42.00
2023-03-21T07:20:07.333Z,44.60
2023-03-21T07:21:07.314Z,47.00
2023-03-21T07:22:07.302Z,47.50
2023-03-21T07:23:07.299Z,40.50
2023-03-21T07:24:07.297Z,40.10
2023-03-21T07:25:07.374Z,41.00
2023-03-21T07:26:07.277Z,41.00
2023-03-21T07:27:07.253Z,46.30
2023-03-21T07:28:07.231Z,44.80
2023-03-21T07:29:07.289Z,42.80
2023-03-21T07:30:07.228Z,45.40
2023-03-21T07:31:07.276Z,40.20
2023-03-21T07:32:07.187Z,43.30
2023-03-21T07:33:07.190Z,41.00
2023-03-21T07:34:07.170Z,48.00
2023-03-21T07:35:07.216Z,39.80
2023-03-21T07:36:07.196Z,41.90
2023-03-21T07:37:07.153Z,42.40
2023-03-21T07:38:07.116Z,36.70
2023-03-21T07:39:07.153Z,42.40
2023-03-21T07:40:07.241Z,40.70
2023-03-21T07:41:07.170Z,43.80
2023-03-21T07:42:07.161Z,41.00
2023-03-21T07:43:07.135Z,37.20
2023-03-21T07:45:07.058Z,34.40
2023-03-21T07:46:07.082Z,45.60
2023-03-21T07:47:07.051Z,43.70
2023-03-21T07:48:07.061Z,46.00
2023-03-21T07:49:06.998Z,42.50
2023-03-21T07:50:07.037Z,42.50
2023-03-21T07:51:07.036Z,40.60
2023-03-21T07:52:07.049Z,37.10
2023-03-21T07:53:06.970Z,39.00
2023-03-21T07:54:06.953Z,36.80
2023-03-21T07:55:06.965Z,40.50
2023-03-21T07:56:06.917Z,41.80
2023-03-21T07:57:06.902Z,44.90
2023-03-21T07:58:06.928Z,39.80
2023-03-21T07:59:06.886Z,34.00
2023-03-21T08:00:06.907Z,42.60
2023-03-21T08:01:06.960Z,41.80
2023-03-21T08:02:06.951Z,41.80
2023-03-21T08:03:06.911Z,43.00
2023-03-21T08:04:06.858Z,37.90
2023-03-21T08:05:06.848Z,41.80
2023-03-21T08:06:06.847Z,37.30
2023-03-21T08:07:06.813Z,41.40
2023-03-21T08:08:06.804Z,37.50
2023-03-21T08:09:06.777Z,35.50
2023-03-21T08:10:06.802Z,41.90
2023-03-21T08:11:06.752Z,46.20
2023-03-21T08:12:06.738Z,38.10
2023-03-21T08:13:06.745Z,36.20
2023-03-21T08:14:06.739Z,39.20
2023-03-21T08:15:06.728Z,38.00
2023-03-21T08:16:06.699Z,42.20
2023-03-21T08:17:06.775Z,37.80
2023-03-21T08:18:06.676Z,43.50
2023-03-21T08:19:06.673Z,43.50
2023-03-21T08:20:06.715Z,42.10
2023-03-21T08:21:08.855Z,36.30
2023-03-21T08:22:06.684Z,37.20
2023-03-21T08:23:06.618Z,40.60
2023-03-21T08:24:06.606Z,40.40
2023-03-21T08:25:06.623Z,41.00
2023-03-21T08:26:06.582Z,37.00
2023-03-21T08:27:06.570Z,43.40
2023-03-21T08:28:06.563Z,38.40
2023-03-21T08:29:06.552Z,42.40
2023-03-21T08:30:06.560Z,41.20
2023-03-21T08:31:06.721Z,45.10
2023-03-21T08:32:06.535Z,45.00
2023-03-21T08:33:06.502Z,42.70
2023-03-21T08:34:06.495Z,41.90
2023-03-21T08:35:06.529Z,41.80
2023-03-21T08:36:06.490Z,45.20
2023-03-21T08:37:06.458Z,44.80
2023-03-21T08:38:06.459Z,39.60
2023-03-21T08:39:06.474Z,49.80
2023-03-21T08:40:06.541Z,42.40
2023-03-21T08:41:06.419Z,51.90
2023-03-21T08:42:06.394Z,50.60
2023-03-21T08:43:06.397Z,42.70
2023-03-21T08:44:06.407Z,38.00
2023-03-21T08:45:06.391Z,41.10
2023-03-21T08:46:06.472Z,39.00
2023-03-21T08:47:06.355Z,42.80
2023-03-21T08:48:06.438Z,39.40
2023-03-21T08:49:06.324Z,37.10
2023-03-21T08:50:06.337Z,37.90
2023-03-21T08:51:06.297Z,42.50
2023-03-21T08:52:06.290Z,41.60
2023-03-21T08:53:06.288Z,40.40
2023-03-21T08:54:06.269Z,37.90
2023-03-21T08:55:06.277Z,38.40
2023-03-21T08:56:06.264Z,39.40
2023-03-21T08:57:06.233Z,36.90
2023-03-21T08:58:06.226Z,44.20
2023-03-21T08:59:06.223Z,38.10
2023-03-21T09:00:06.225Z,39.10
2023-03-21T09:01:06.194Z,33.50
2023-03-21T09:02:06.325Z,36.50
2023-03-21T09:03:06.173Z,37.70
2023-03-21T09:04:06.161Z,34.90
2023-03-21T09:05:06.190Z,40.10
2023-03-21T09:06:06.137Z,37.30
2023-03-21T09:07:06.140Z,36.30
2023-03-21T09:08:06.118Z,38.90
2023-03-21T09:09:06.130Z,35.00
2023-03-21T09:10:20.548Z,39.90
2023-03-21T09:11:06.110Z,39.40
2023-03-21T09:12:06.077Z,41.20
2023-03-21T09:13:06.080Z,33.20
2023-03-21T09:14:06.065Z,36.90
2023-03-21T09:15:06.066Z,36.80
2023-03-21T09:16:06.054Z,38.10
2023-03-21T09:17:06.018Z,36.20
2023-03-21T09:18:06.015Z,36.20
2023-03-21T09:19:05.995Z,37.20
2023-03-21T09:20:06.035Z,33.50
2023-03-21T09:21:05.969Z,38.40
2023-03-21T09:22:05.969Z,38.80
2023-03-21T09:23:05.943Z,34.10
2023-03-21T09:24:05.944Z,34.00
2023-03-21T09:25:05.940Z,33.60
2023-03-21T09:26:05.928Z,32.80
2023-03-21T09:27:05.898Z,35.60
2023-03-21T09:28:05.895Z,34.50
2023-03-21T09:29:05.880Z,36.30
2023-03-21T09:30:05.921Z,38.30
2023-03-21T09:31:05.878Z,31.00
2023-03-21T09:32:05.848Z,33.20
2023-03-21T09:33:05.846Z,34.50
2023-03-21T09:34:05.828Z,34.10
2023-03-21T09:35:05.850Z,33.00
2023-03-21T09:36:05.819Z,33.90
2023-03-21T09:37:05.782Z,33.90
2023-03-21T09:38:05.790Z,32.60
2023-03-21T09:39:05.782Z,31.80
2023-03-21T09:40:05.780Z,34.10
2023-03-21T09:41:05.744Z,32.00
2023-03-21T09:42:05.764Z,32.10
2023-03-21T09:43:05.942Z,32.30
2023-03-21T09:44:05.752Z,34.40
2023-03-21T09:45:05.725Z,33.10
2023-03-21T09:46:05.704Z,36.00
2023-03-21T09:47:05.712Z,32.20
2023-03-21T09:48:05.713Z,30.10
2023-03-21T09:49:05.659Z,31.90
2023-03-21T09:50:13.987Z,34.20
2023-03-21T09:51:05.680Z,31.80
2023-03-21T09:52:05.622Z,30.90
2023-03-21T09:53:05.641Z,28.10
2023-03-21T09:54:05.598Z,28.30
2023-03-21T09:55:05.610Z,29.70
2023-03-21T09:56:05.589Z,32.10
2023-03-21T09:57:05.580Z,29.70
2023-03-21T09:58:05.575Z,33.20
2023-03-21T09:59:05.546Z,29.40
2023-03-21T10:00:05.576Z,29.00
2023-03-21T10:01:05.532Z,31.60
2023-03-21T10:02:05.526Z,27.20
2023-03-21T10:03:05.527Z,25.40
2023-03-21T10:04:05.601Z,26.00
2023-03-21T10:05:05.499Z,27.60
2023-03-21T10:06:05.508Z,29.10
2023-03-21T10:07:05.486Z,31.00
2023-03-21T10:08:05.448Z,30.00
2023-03-21T10:09:05.436Z,30.00
2023-03-21T10:10:05.472Z,31.10
2023-03-21T10:11:05.408Z,25.70
2023-03-21T10:12:05.401Z,27.40
2023-03-21T10:13:05.389Z,30.70
2023-03-21T10:14:05.415Z,29.80
2023-03-21T10:15:05.389Z,26.00
2023-03-21T10:16:05.408Z,29.40
2023-03-21T10:17:05.344Z,30.80
2023-03-21T10:18:05.329Z,28.80
2023-03-21T10:19:05.327Z,33.10
2023-03-21T10:20:05.357Z,28.50
2023-03-21T10:21:05.302Z,33.40
2023-03-21T10:22:05.294Z,31.10
2023-03-21T10:23:05.281Z,34.80
2023-03-21T10:24:05.275Z,28.60
2023-03-21T10:25:05.347Z,37.40
2023-03-21T10:26:05.258Z,28.50
2023-03-21T10:27:05.285Z,31.90
2023-03-21T10:28:05.224Z,29.20
2023-03-21T10:29:05.236Z,30.90
2023-03-21T10:30:05.240Z,31.30
2023-03-21T10:31:05.190Z,34.60
2023-03-21T10:32:05.468Z,29.90
2023-03-21T10:33:05.392Z,33.50
2023-03-21T10:34:05.153Z,32.50
2023-03-21T10:35:05.403Z,27.70
2023-03-21T10:36:05.283Z,30.60
2023-03-21T10:37:05.460Z,30.80
2023-03-21T10:38:05.120Z,29.50
2023-03-21T10:39:05.105Z,30.70
2023-03-21T10:40:05.105Z,33.70
2023-03-21T10:41:05.080Z,37.40
2023-03-21T10:42:05.072Z,34.10
2023-03-21T10:43:05.055Z,33.60
2023-03-21T10:44:05.064Z,30.30
2023-03-21T10:45:05.056Z,32.50
2023-03-21T10:46:05.178Z,30.80
2023-03-21T10:47:05.230Z,28.20
2023-03-21T10:48:05.190Z,27.10
2023-03-21T10:49:05.063Z,30.90
2023-03-21T10:50:08.125Z,26.60
2023-03-21T10:51:05.031Z,26.60
2023-03-21T10:52:04.948Z,26.60
2023-03-21T10:53:04.964Z,30.90
2023-03-21T10:54:04.938Z,26.50
2023-03-21T10:55:05.369Z,24.50
2023-03-21T10:56:04.906Z,26.90
2023-03-21T10:57:04.968Z,25.50
2023-03-21T10:58:04.891Z,24.40
2023-03-21T10:59:04.876Z,24.90
2023-03-21T11:00:04.891Z,26.30
2023-03-21T11:01:04.914Z,25.90
2023-03-21T11:02:04.860Z,26.80
2023-03-21T11:03:04.823Z,24.70
2023-03-21T11:04:04.854Z,26.10
2023-03-21T11:05:04.834Z,23.50
2023-03-21T11:06:04.806Z,25.20
2023-03-21T11:07:04.780Z,26.10
2023-03-21T11:08:04.816Z,25.20
2023-03-21T11:09:04.771Z,22.60
2023-03-21T11:10:04.796Z,26.30
2023-03-21T11:11:04.736Z,26.40
2023-03-21T11:12:04.746Z,20.90
2023-03-21T11:13:04.730Z,24.10
2023-03-21T11:14:04.707Z,23.00
2023-03-21T11:15:04.739Z,22.30
2023-03-21T11:16:04.691Z,23.60
2023-03-21T11:17:04.710Z,23.20
2023-03-21T11:18:04.674Z,22.00
2023-03-21T11:19:04.645Z,22.90
2023-03-21T11:20:04.692Z,26.00
2023-03-21T11:21:04.666Z,24.80
2023-03-21T11:22:04.628Z,23.50
2023-03-21T11:23:04.605Z,24.20
2023-03-21T11:24:04.872Z,23.90
2023-03-21T11:25:04.576Z,21.40
2023-03-21T11:26:04.640Z,24.10
2023-03-21T11:27:04.569Z,25.60
2023-03-21T11:28:04.562Z,23.60
2023-03-21T11:29:04.556Z,21.80
2023-03-21T11:30:04.541Z,23.20
2023-03-21T11:31:04.684Z,21.60
2023-03-21T11:32:04.523Z,26.50
2023-03-21T11:33:04.576Z,27.00
2023-03-21T11:34:04.507Z,24.40
2023-03-21T11:35:04.488Z,25.60
2023-03-21T11:36:04.567Z,24.10
2023-03-21T11:37:04.453Z,26.80
2023-03-21T11:38:04.450Z,25.40
2023-03-21T11:39:04.433Z,23.80
2023-03-21T11:40:04.421Z,25.20
2023-03-21T11:41:04.429Z,26.90
2023-03-21T11:42:04.402Z,25.10
2023-03-21T11:43:04.393Z,27.00
2023-03-21T11:44:04.410Z,26.80
2023-03-21T11:45:04.367Z,28.30
2023-03-21T11:46:04.555Z,27.60
2023-03-21T11:47:04.346Z,24.00
2023-03-21T11:48:04.354Z,23.90
2023-03-21T11:49:04.317Z,24.90
2023-03-21T11:50:05.490Z,19.50
2023-03-21T11:51:04.321Z,26.60
2023-03-21T11:52:04.285Z,24.00
2023-03-21T11:53:04.313Z,26.50
2023-03-21T11:54:04.263Z,22.40
2023-03-21T11:55:04.257Z,24.00
2023-03-21T11:56:04.262Z,24.60
2023-03-21T11:57:04.226Z,23.50
2023-03-21T11:58:13.892Z,26.60
2023-03-21T11:59:04.262Z,25.80
2023-03-21T12:00:04.766Z,22.30
2023-03-21T12:01:04.217Z,24.90
2023-03-21T12:02:04.179Z,25.40
2023-03-21T12:03:04.261Z,25.80
2023-03-21T12:04:04.236Z,28.00
2023-03-21T12:05:04.154Z,27.30
2023-03-21T12:06:04.148Z,21.40
2023-03-21T12:07:04.113Z,22.70
2023-03-21T12:08:04.110Z,29.40
2023-03-21T12:09:04.115Z,23.40
2023-03-21T12:10:04.081Z,22.30
2023-03-21T12:11:04.132Z,25.70
2023-03-21T12:12:04.067Z,25.10
2023-03-21T12:13:04.051Z,25.60
2023-03-21T12:14:04.029Z,23.00
2023-03-21T12:15:04.025Z,23.40
2023-03-21T12:16:04.089Z,22.10
2023-03-21T12:17:04.002Z,21.10
2023-03-21T12:18:03.994Z,22.30
2023-03-21T12:19:03.992Z,23.30
2023-03-21T12:20:03.968Z,25.10
2023-03-21T12:21:03.987Z,23.50
2023-03-21T12:22:03.952Z,32.90
2023-03-21T12:23:03.951Z,26.10
2023-03-21T12:24:03.916Z,24.70
2023-03-21T12:25:03.912Z,23.40
2023-03-21T12:26:03.926Z,24.90
2023-03-21T12:27:03.888Z,26.60
2023-03-21T12:28:06.137Z,29.00
2023-03-21T12:29:03.873Z,26.50
2023-03-21T12:30:03.850Z,26.90
2023-03-21T12:31:03.933Z,24.90
2023-03-21T12:32:03.830Z,26.70
2023-03-21T12:33:03.821Z,25.00
2023-03-21T12:34:03.801Z,27.10
2023-03-21T12:35:03.804Z,22.10
2023-03-21T12:36:03.862Z,25.10
2023-03-21T12:37:03.775Z,22.40
2023-03-21T12:38:03.753Z,27.10
2023-03-21T12:39:03.753Z,20.00
2023-03-21T12:40:03.736Z,22.10
2023-03-21T12:41:03.770Z,21.90
2023-03-21T12:42:03.715Z,21.30
2023-03-21T12:43:03.710Z,19.20
2023-03-21T12:44:03.685Z,20.10
2023-03-21T12:45:06.254Z,23.40
2023-03-21T12:46:03.704Z,22.40
2023-03-21T12:47:03.758Z,27.40
2023-03-21T12:48:03.732Z,21.00
2023-03-21T12:49:03.642Z,19.80
2023-03-21T12:50:03.667Z,18.40
2023-03-21T12:51:03.654Z,19.50
2023-03-21T12:52:03.612Z,17.50
2023-03-21T12:53:03.595Z,17.10
2023-03-21T12:54:03.589Z,15.90
2023-03-21T12:55:03.585Z,16.10
2023-03-21T12:56:03.566Z,15.50
2023-03-21T12:57:03.593Z,17.50
2023-03-21T12:58:03.541Z,16.50
2023-03-21T12:59:03.533Z,18.60
2023-03-21T13:00:03.530Z,16.20
2023-03-21T13:01:03.746Z,15.30
2023-03-21T13:02:03.490Z,16.20
2023-03-21T13:03:03.489Z,13.70
2023-03-21T13:04:03.515Z,15.70
2023-03-21T13:05:03.481Z,15.10
2023-03-21T13:06:03.496Z,14.90
2023-03-21T13:07:03.444Z,13.60
2023-03-21T13:08:03.424Z,10.90
2023-03-21T13:09:03.421Z,14.00
2023-03-21T13:10:03.411Z,14.10
2023-03-21T13:11:03.421Z,15.20
2023-03-21T13:12:03.381Z,13.80
2023-03-21T13:13:03.373Z,14.50
2023-03-21T13:14:03.357Z,14.30
2023-03-21T13:15:03.561Z,15.10
2023-03-21T13:16:03.400Z,11.90
2023-03-21T13:17:03.334Z,13.90
2023-03-21T13:18:03.327Z,12.20
2023-03-21T13:19:03.331Z,12.90
2023-03-21T13:20:03.297Z,12.70
2023-03-21T13:21:03.319Z,12.60
2023-03-21T13:22:03.272Z,11.40
2023-03-21T13:23:03.273Z,11.00
2023-03-21T13:24:03.254Z,12.10
2023-03-21T13:25:03.257Z,12.20
2023-03-21T13:26:03.262Z,15.10
2023-03-21T13:27:03.231Z,10.40
2023-03-21T13:28:03.208Z,12.30
2023-03-21T13:29:03.203Z,11.30
2023-03-21T13:30:03.241Z,15.50
2023-03-21T13:31:03.204Z,14.60